F/V Matmaco — FVNS — position and weather

sailwx.info

Track history (hours):
 
Tides and Currents Weather Stations Pressure Air Temp Water Temp Dewpoint Dewpoint Depression Visibility Wind Speed Wind Dir Waves Ship Positions

F/V Matmaco

Last reported at 2017-Dec-17 22:40 UTC. Time now 2017-Dec-18 03:28 UTC.
Position N 46°51' W 003°33'.

Length 20 m.

Type: Other ship. MMSI: 228194000.

Date/timePositionNaut miles runAvg speedWind from/ knotsBaromVisibWave heightAir tempDewpointWater temp
2017-Dec-17 22:40N 46°51' W 003°33'1 3.6
2017-Dec-17 22:24N 46°50' W 003°32'4 3.3
2017-Dec-17 21:07N 46°47' W 003°27'  
2017-Dec-15 03:30N 47°14' W 002°35'5 5.0
2017-Dec-15 02:30N 47°19' W 002°31'1 0.0
2017-Dec-14 03:04N 47°18' W 002°31'0 0.1
2017-Dec-14 01:58N 47°18' W 002°31'2 4.4
2017-Dec-14 01:27N 47°19' W 002°34'4 7.8
2017-Dec-14 00:59N 47°16' W 002°36'2 0.0
2017-Dec-12 09:15N 47°15' W 002°38'2 9.3
2017-Dec-12 08:59N 47°17' W 002°36'3 6.3
2017-Dec-12 08:27N 47°18' W 002°31'1 1.1
2017-Dec-12 07:58N 47°18' W 002°31'0 0.0
2017-Dec-12 07:30N 47°18' W 002°31'0 0.0
2017-Dec-12 06:58N 47°18' W 002°31'1 2.6
2017-Dec-12 06:28N 47°19' W 002°32'1 2.5
2017-Dec-12 05:57N 47°19' W 002°34'2 4.4
2017-Dec-12 05:29N 47°17' W 002°35'3 6.6
2017-Dec-12 05:00N 47°14' W 002°37'3 6.6
2017-Dec-12 04:30N 47°11' W 002°38'  
2017-Dec-09 10:08N 47°18' W 002°31'0 0.1
2017-Dec-09 10:00N 47°18' W 002°31'0 0.0
2017-Dec-09 09:30N 47°18' W 002°31'0 0.1
2017-Dec-09 09:00N 47°18' W 002°31'0 0.3
2017-Dec-09 08:30N 47°18' W 002°31'0 0.0
2017-Dec-09 08:00N 47°18' W 002°31'0 0.0
2017-Dec-09 07:30N 47°18' W 002°31'0 0.0
2017-Dec-09 07:00N 47°18' W 002°31'0 0.0
2017-Dec-09 06:30N 47°18' W 002°31'0 0.0
2017-Dec-09 05:59N 47°18' W 002°31'0 0.0
2017-Dec-09 05:29N 47°18' W 002°31'0 0.0
2017-Dec-09 04:59N 47°18' W 002°31'0 0.0
2017-Dec-09 04:30N 47°18' W 002°31'0 0.0
2017-Dec-09 03:59N 47°18' W 002°31'0 0.0
2017-Dec-09 03:29N 47°18' W 002°31'0 0.0
2017-Dec-09 03:00N 47°18' W 002°31'0 0.0
2017-Dec-09 01:01N 47°18' W 002°31'0 0.0
2017-Dec-09 00:57N 47°18' W 002°31'0 0.2
2017-Dec-08 23:03N 47°18' W 002°31'2 7.3
2017-Dec-08 22:50N 47°19' W 002°33'3 8.0
2017-Dec-08 22:30N 47°17' W 002°35'  
Track history (hours):
 
Tides and Currents Weather Stations Pressure Air Temp Water Temp Dewpoint Dewpoint Depression Visibility Wind Speed Wind Dir Waves Ship Positions

F/V Matmaco

Last reported at 2017-Dec-17 22:40 UTC. Time now 2017-Dec-18 03:28 UTC.
Position N 46°51' W 003°33'.

Length 20 m.

Type: Other ship. MMSI: 228194000.

Date/timePositionNaut miles runAvg speedWind from/ knotsBaromVisibWave heightAir tempDewpointWater temp
2017-Dec-17 22:40N 46°51' W 003°33'1 3.6
2017-Dec-17 22:24N 46°50' W 003°32'4 3.3
2017-Dec-17 21:07N 46°47' W 003°27'  
2017-Dec-15 03:30N 47°14' W 002°35'5 5.0
2017-Dec-15 02:30N 47°19' W 002°31'1 0.0
2017-Dec-14 03:04N 47°18' W 002°31'0 0.1
2017-Dec-14 01:58N 47°18' W 002°31'2 4.4
2017-Dec-14 01:27N 47°19' W 002°34'4 7.8
2017-Dec-14 00:59N 47°16' W 002°36'2 0.0
2017-Dec-12 09:15N 47°15' W 002°38'2 9.3
2017-Dec-12 08:59N 47°17' W 002°36'3 6.3
2017-Dec-12 08:27N 47°18' W 002°31'1 1.1
2017-Dec-12 07:58N 47°18' W 002°31'0 0.0
2017-Dec-12 07:30N 47°18' W 002°31'0 0.0
2017-Dec-12 06:58N 47°18' W 002°31'1 2.6
2017-Dec-12 06:28N 47°19' W 002°32'1 2.5
2017-Dec-12 05:57N 47°19' W 002°34'2 4.4
2017-Dec-12 05:29N 47°17' W 002°35'3 6.6
2017-Dec-12 05:00N 47°14' W 002°37'3 6.6
2017-Dec-12 04:30N 47°11' W 002°38'  
2017-Dec-09 10:08N 47°18' W 002°31'0 0.1
2017-Dec-09 10:00N 47°18' W 002°31'0 0.0
2017-Dec-09 09:30N 47°18' W 002°31'0 0.1
2017-Dec-09 09:00N 47°18' W 002°31'0 0.3
2017-Dec-09 08:30N 47°18' W 002°31'0 0.0
2017-Dec-09 08:00N 47°18' W 002°31'0 0.0
2017-Dec-09 07:30N 47°18' W 002°31'0 0.0
2017-Dec-09 07:00N 47°18' W 002°31'0 0.0
2017-Dec-09 06:30N 47°18' W 002°31'0 0.0
2017-Dec-09 05:59N 47°18' W 002°31'0 0.0
2017-Dec-09 05:29N 47°18' W 002°31'0 0.0
2017-Dec-09 04:59N 47°18' W 002°31'0 0.0
2017-Dec-09 04:30N 47°18' W 002°31'0 0.0
2017-Dec-09 03:59N 47°18' W 002°31'0 0.0
2017-Dec-09 03:29N 47°18' W 002°31'0 0.0
2017-Dec-09 03:00N 47°18' W 002°31'0 0.0
2017-Dec-09 01:01N 47°18' W 002°31'0 0.0
2017-Dec-09 00:57N 47°18' W 002°31'0 0.2
2017-Dec-08 23:03N 47°18' W 002°31'2 7.3
2017-Dec-08 22:50N 47°19' W 002°33'3 8.0
2017-Dec-08 22:30N 47°17' W 002°35'  

Dump ship's entire track history